メインページ
METAR-TAF:

METAR-TAF

空港 :

Ingenika Point, ブリティッシュコロンビア州, カナダ

緯度: 56-48N, 経度: 124-54W, 海抜: 680m

METAR: 見つかりません

時間: 17:55 (00:55 UTC)

予報

当レポートは55分前の00:00(UTC)に作成
予報は26日の 24時(UTC)から 27日の 24時(UTC)まで有効
南西の風 11kt、最大16ktの突風を伴う
視程: 10km
晴天
26日の 0600時(UTC)から
南西の風 16kt
視程: 10km
晴天
26日の 1800時(UTC)から
南西の風 13kt
視程: 10km
晴天

TAF: CWWU 260000Z 2624/2724 23011G16KT P6SM SKC FM260600 23016KT P6SM SKC FM261800 23013KT P6SM SKC RMK FCST BASED ON AUTO OBS. RMK NXT FCST BY 260600Z

4,000以上の空港の気象観測と天気予報(METAR報とTAF報)

利用可能な観測所は地図上に黄色い丸と赤い丸で示す。

丸の上にカーソルを重ねると観測所名を参照できる。

次にクリックすると気象観測と天気予報を参照できる。

マップの切り替え:黒色「×」印の緑ボタンをクリックして拡大、「-」印の緑ボタンをクリックして縮小、緑色の三角印をクリックして隣りの地図に切り替え


METAR-TAF: